Charter Quote
Worldwide +44-20-3874-8091 Call
Select Language Lang
SAFETY RELIABILITY EXPERIENCE

Lyneham Airport (EGDL) - Jet Charter Services

AIRPORT INFORMATION
ICAOEGDL
IATALYE
LOCATIONLyneham, United Kingdom
FACILITY TYPEAIRPORT
Runway Length (ft) Width (ft) Surface Type Elevation (ft)
24/06 7828 148 ASP 512.65574
36/18 5991 148 ASP 512.65574

At Paramount Business Jets you can hire chartered private jets to and from Lyneham Airport with as little as 4 hours of notice. All flights booked via Paramount Business Jets are operated by certified direct air carriers that meet and exceed the FAA part 135 and 121 protocol or a foreign equivalent safety authority. Furthermore, Paramount Business Jets subscribes to ARGUS for their third party safety checks of operators, aircraft, and crews prior each and every flight to and from Lyneham Airport and worldwide.

  • Quote a trip using Lyneham Airport or call us 24/7 - 365 days a year at +44-20-3874-8091.
Questions? Call +44-20-3874-8091

FBOs at Lyneham Airport, EGDL, LYE

NAME ADDRESS PHONE WEBSITE
Royal Air Force    (441) 249-0381   

METAR Weather Data at Lyneham Airport, EGDL, LYE

STATIONEGDL
OBSERVEDFri Jun 21, 07:50 UTC
NOWWed May 22, 09:37 UTC
AGE51865:47 hr ago
WINDWSW at 9 mph
METAREGDL 210750Z AUTO 25008KT //// // BKN002/// BKN014/// 14/14 Q1010

Call us on +44-20-3874-8091 (24 Hours) to Hire a Private Jet or Get a Quick Quote.

Find Airports Near any Location

Processing
...